sensor_id;sensor_type;location;lat;lon;timestamp;temperature;humidity
10312;DHT22;5201;48.776;9.128;2022-10-01T00:00:58;10.40;99.90
10312;DHT22;5201;48.776;9.128;2022-10-01T00:03:26;10.40;99.90
10312;DHT22;5201;48.776;9.128;2022-10-01T00:06:07;10.10;99.90
10312;DHT22;5201;48.776;9.128;2022-10-01T00:08:38;10.60;99.90
10312;DHT22;5201;48.776;9.128;2022-10-01T00:11:09;10.70;99.90
10312;DHT22;5201;48.776;9.128;2022-10-01T00:13:36;10.60;99.90
10312;DHT22;5201;48.776;9.128;2022-10-01T00:16:11;10.50;99.90
10312;DHT22;5201;48.776;9.128;2022-10-01T00:18:38;10.30;99.90
10312;DHT22;5201;48.776;9.128;2022-10-01T00:21:33;10.30;99.90
10312;DHT22;5201;48.776;9.128;2022-10-01T00:24:02;10.40;99.90
10312;DHT22;5201;48.776;9.128;2022-10-01T00:26:31;10.30;99.90
10312;DHT22;5201;48.776;9.128;2022-10-01T00:28:59;10.30;99.90
10312;DHT22;5201;48.776;9.128;2022-10-01T00:31:26;10.30;99.90
10312;DHT22;5201;48.776;9.128;2022-10-01T00:33:55;10.80;99.90
10312;DHT22;5201;48.776;9.128;2022-10-01T00:36:22;10.40;99.90
10312;DHT22;5201;48.776;9.128;2022-10-01T00:38:48;10.30;99.90
10312;DHT22;5201;48.776;9.128;2022-10-01T00:41:15;10.30;99.90
10312;DHT22;5201;48.776;9.128;2022-10-01T00:43:51;10.60;99.90
10312;DHT22;5201;48.776;9.128;2022-10-01T00:46:40;10.80;99.90
10312;DHT22;5201;48.776;9.128;2022-10-01T00:49:10;10.90;99.90
10312;DHT22;5201;48.776;9.128;2022-10-01T00:51:41;11.00;99.90
10312;DHT22;5201;48.776;9.128;2022-10-01T00:54:12;11.10;99.90
10312;DHT22;5201;48.776;9.128;2022-10-01T00:56:40;11.10;99.90
10312;DHT22;5201;48.776;9.128;2022-10-01T00:59:07;11.10;99.90
10312;DHT22;5201;48.776;9.128;2022-10-01T01:01:35;11.10;99.90
10312;DHT22;5201;48.776;9.128;2022-10-01T01:04:02;11.50;99.90
10312;DHT22;5201;48.776;9.128;2022-10-01T01:06:28;11.30;99.90
10312;DHT22;5201;48.776;9.128;2022-10-01T01:08:54;11.50;99.90
10312;DHT22;5201;48.776;9.128;2022-10-01T01:14:10;11.30;99.90
10312;DHT22;5201;48.776;9.128;2022-10-01T01:16:53;11.30;99.90
10312;DHT22;5201;48.776;9.128;2022-10-01T01:19:38;11.30;99.90
10312;DHT22;5201;48.776;9.128;2022-10-01T01:22:09;11.50;99.90
10312;DHT22;5201;48.776;9.128;2022-10-01T01:24:56;12.10;99.90
10312;DHT22;5201;48.776;9.128;2022-10-01T01:27:57;11.40;99.90
10312;DHT22;5201;48.776;9.128;2022-10-01T01:30:23;11.20;99.90
10312;DHT22;5201;48.776;9.128;2022-10-01T01:32:57;11.90;99.90
10312;DHT22;5201;48.776;9.128;2022-10-01T01:35:38;11.20;99.90
10312;DHT22;5201;48.776;9.128;2022-10-01T01:38:15;11.00;99.90
10312;DHT22;5201;48.776;9.128;2022-10-01T01:40:43;11.10;99.90
10312;DHT22;5201;48.776;9.128;2022-10-01T01:43:13;11.20;99.90
10312;DHT22;5201;48.776;9.128;2022-10-01T01:45:42;11.10;99.90
10312;DHT22;5201;48.776;9.128;2022-10-01T01:48:09;11.10;99.90
10312;DHT22;5201;48.776;9.128;2022-10-01T01:50:45;11.10;99.90
10312;DHT22;5201;48.776;9.128;2022-10-01T01:53:13;11.10;99.90
10312;DHT22;5201;48.776;9.128;2022-10-01T01:55:39;11.00;99.90
10312;DHT22;5201;48.776;9.128;2022-10-01T01:58:06;11.60;99.90
10312;DHT22;5201;48.776;9.128;2022-10-01T02:00:32;11.00;99.90
10312;DHT22;5201;48.776;9.128;2022-10-01T02:02:58;11.00;99.90
10312;DHT22;5201;48.776;9.128;2022-10-01T02:05:26;11.10;99.90
10312;DHT22;5201;48.776;9.128;2022-10-01T02:08:22;11.10;99.90
10312;DHT22;5201;48.776;9.128;2022-10-01T02:11:15;11.20;99.90
10312;DHT22;5201;48.776;9.128;2022-10-01T02:14:03;11.20;99.90
10312;DHT22;5201;48.776;9.128;2022-10-01T02:16:37;11.10;99.90
10312;DHT22;5201;48.776;9.128;2022-10-01T02:22:02;11.10;99.90
10312;DHT22;5201;48.776;9.128;2022-10-01T02:24:51;11.20;99.90
10312;DHT22;5201;48.776;9.128;2022-10-01T02:27:32;11.30;99.90
10312;DHT22;5201;48.776;9.128;2022-10-01T02:30:05;11.20;99.90
10312;DHT22;5201;48.776;9.128;2022-10-01T02:32:37;11.10;99.90
10312;DHT22;5201;48.776;9.128;2022-10-01T02:35:10;11.20;99.90
10312;DHT22;5201;48.776;9.128;2022-10-01T02:37:37;11.80;99.90
10312;DHT22;5201;48.776;9.128;2022-10-01T02:40:08;11.20;99.90
10312;DHT22;5201;48.776;9.128;2022-10-01T02:42:37;11.20;99.90
10312;DHT22;5201;48.776;9.128;2022-10-01T02:45:04;11.20;99.90
10312;DHT22;5201;48.776;9.128;2022-10-01T02:47:35;11.20;99.90
10312;DHT22;5201;48.776;9.128;2022-10-01T02:50:04;11.50;99.90
10312;DHT22;5201;48.776;9.128;2022-10-01T02:52:40;11.10;99.90
10312;DHT22;5201;48.776;9.128;2022-10-01T02:55:10;11.80;99.90
10312;DHT22;5201;48.776;9.128;2022-10-01T02:57:37;11.50;99.90
10312;DHT22;5201;48.776;9.128;2022-10-01T03:00:09;11.10;99.90
10312;DHT22;5201;48.776;9.128;2022-10-01T03:02:35;11.10;99.90
10312;DHT22;5201;48.776;9.128;2022-10-01T03:05:00;11.10;99.90
10312;DHT22;5201;48.776;9.128;2022-10-01T03:07:28;11.10;99.90
10312;DHT22;5201;48.776;9.128;2022-10-01T03:09:54;11.00;99.90
10312;DHT22;5201;48.776;9.128;2022-10-01T03:12:20;10.90;99.90
10312;DHT22;5201;48.776;9.128;2022-10-01T03:14:47;11.00;99.90
10312;DHT22;5201;48.776;9.128;2022-10-01T03:17:13;11.10;99.90
10312;DHT22;5201;48.776;9.128;2022-10-01T03:19:39;11.10;99.90
10312;DHT22;5201;48.776;9.128;2022-10-01T03:22:06;11.10;99.90
10312;DHT22;5201;48.776;9.128;2022-10-01T03:24:31;11.20;99.90
10312;DHT22;5201;48.776;9.128;2022-10-01T03:26:57;11.10;99.90
10312;DHT22;5201;48.776;9.128;2022-10-01T03:29:24;11.00;99.90
10312;DHT22;5201;48.776;9.128;2022-10-01T03:31:50;11.10;99.90
10312;DHT22;5201;48.776;9.128;2022-10-01T03:34:16;11.10;99.90
10312;DHT22;5201;48.776;9.128;2022-10-01T03:36:41;11.00;99.90
10312;DHT22;5201;48.776;9.128;2022-10-01T03:39:07;11.00;99.90
10312;DHT22;5201;48.776;9.128;2022-10-01T03:41:33;11.00;99.90
10312;DHT22;5201;48.776;9.128;2022-10-01T03:43:58;11.10;99.90
10312;DHT22;5201;48.776;9.128;2022-10-01T03:46:24;11.10;99.90
10312;DHT22;5201;48.776;9.128;2022-10-01T03:48:51;10.90;99.90
10312;DHT22;5201;48.776;9.128;2022-10-01T03:51:17;11.00;99.90
10312;DHT22;5201;48.776;9.128;2022-10-01T03:53:45;10.80;99.90
10312;DHT22;5201;48.776;9.128;2022-10-01T03:56:12;10.90;99.90
10312;DHT22;5201;48.776;9.128;2022-10-01T03:58:37;10.80;99.90
10312;DHT22;5201;48.776;9.128;2022-10-01T04:01:03;10.90;99.90
10312;DHT22;5201;48.776;9.128;2022-10-01T04:03:28;10.90;99.90
10312;DHT22;5201;48.776;9.128;2022-10-01T04:05:55;10.90;99.90
10312;DHT22;5201;48.776;9.128;2022-10-01T04:08:21;10.90;99.90
10312;DHT22;5201;48.776;9.128;2022-10-01T04:10:47;10.90;99.90
10312;DHT22;5201;48.776;9.128;2022-10-01T04:13:14;10.80;99.90
10312;DHT22;5201;48.776;9.128;2022-10-01T04:15:40;10.70;99.90
10312;DHT22;5201;48.776;9.128;2022-10-01T04:18:06;10.70;99.90
10312;DHT22;5201;48.776;9.128;2022-10-01T04:20:33;10.70;99.90
10312;DHT22;5201;48.776;9.128;2022-10-01T04:22:59;10.70;99.90
10312;DHT22;5201;48.776;9.128;2022-10-01T04:25:26;11.20;99.90
10312;DHT22;5201;48.776;9.128;2022-10-01T04:28:00;10.70;99.90
10312;DHT22;5201;48.776;9.128;2022-10-01T04:30:29;10.80;99.90
10312;DHT22;5201;48.776;9.128;2022-10-01T04:32:55;10.90;99.90
10312;DHT22;5201;48.776;9.128;2022-10-01T04:35:21;11.70;99.90
10312;DHT22;5201;48.776;9.128;2022-10-01T04:37:47;10.90;99.90
10312;DHT22;5201;48.776;9.128;2022-10-01T04:40:19;10.90;99.90
10312;DHT22;5201;48.776;9.128;2022-10-01T04:42:44;10.90;99.90
10312;DHT22;5201;48.776;9.128;2022-10-01T04:45:11;10.90;99.90
10312;DHT22;5201;48.776;9.128;2022-10-01T04:47:38;10.90;99.90
10312;DHT22;5201;48.776;9.128;2022-10-01T04:50:11;10.90;99.90
10312;DHT22;5201;48.776;9.128;2022-10-01T04:52:36;10.90;99.90
10312;DHT22;5201;48.776;9.128;2022-10-01T04:55:02;10.90;99.90
10312;DHT22;5201;48.776;9.128;2022-10-01T04:57:28;11.00;99.90
10312;DHT22;5201;48.776;9.128;2022-10-01T04:59:54;11.10;99.90
10312;DHT22;5201;48.776;9.128;2022-10-01T05:02:19;11.00;99.90
10312;DHT22;5201;48.776;9.128;2022-10-01T05:04:45;11.00;99.90
10312;DHT22;5201;48.776;9.128;2022-10-01T05:07:11;11.10;99.90
10312;DHT22;5201;48.776;9.128;2022-10-01T05:09:37;11.10;99.90
10312;DHT22;5201;48.776;9.128;2022-10-01T05:12:03;11.00;99.90
10312;DHT22;5201;48.776;9.128;2022-10-01T05:14:28;10.90;99.90
10312;DHT22;5201;48.776;9.128;2022-10-01T05:16:54;11.00;99.90
10312;DHT22;5201;48.776;9.128;2022-10-01T05:19:20;10.90;99.90
10312;DHT22;5201;48.776;9.128;2022-10-01T05:21:45;10.90;99.90
10312;DHT22;5201;48.776;9.128;2022-10-01T05:24:11;10.80;99.90
10312;DHT22;5201;48.776;9.128;2022-10-01T05:26:36;10.90;99.90
10312;DHT22;5201;48.776;9.128;2022-10-01T05:29:03;10.90;99.90
10312;DHT22;5201;48.776;9.128;2022-10-01T05:31:29;10.80;99.90
10312;DHT22;5201;48.776;9.128;2022-10-01T05:33:54;10.80;99.90
10312;DHT22;5201;48.776;9.128;2022-10-01T05:36:20;10.90;99.90
10312;DHT22;5201;48.776;9.128;2022-10-01T05:38:48;11.10;99.90
10312;DHT22;5201;48.776;9.128;2022-10-01T05:41:17;11.10;99.90
10312;DHT22;5201;48.776;9.128;2022-10-01T05:43:42;11.10;99.90
10312;DHT22;5201;48.776;9.128;2022-10-01T05:46:08;11.10;99.90
10312;DHT22;5201;48.776;9.128;2022-10-01T05:48:34;11.00;99.90
10312;DHT22;5201;48.776;9.128;2022-10-01T05:51:01;11.00;99.90
10312;DHT22;5201;48.776;9.128;2022-10-01T05:53:33;11.10;99.90
10312;DHT22;5201;48.776;9.128;2022-10-01T05:55:59;11.00;99.90
10312;DHT22;5201;48.776;9.128;2022-10-01T05:58:27;11.00;99.90
10312;DHT22;5201;48.776;9.128;2022-10-01T06:00:54;11.10;99.90
10312;DHT22;5201;48.776;9.128;2022-10-01T06:03:20;11.20;99.90
10312;DHT22;5201;48.776;9.128;2022-10-01T06:05:45;11.20;99.90
10312;DHT22;5201;48.776;9.128;2022-10-01T06:08:12;11.30;99.90
10312;DHT22;5201;48.776;9.128;2022-10-01T06:10:37;11.20;99.90
10312;DHT22;5201;48.776;9.128;2022-10-01T06:13:04;11.20;99.90
10312;DHT22;5201;48.776;9.128;2022-10-01T06:15:36;11.20;99.90
10312;DHT22;5201;48.776;9.128;2022-10-01T06:18:07;11.20;99.90
10312;DHT22;5201;48.776;9.128;2022-10-01T06:20:34;11.30;99.90
10312;DHT22;5201;48.776;9.128;2022-10-01T06:23:00;11.30;99.90
10312;DHT22;5201;48.776;9.128;2022-10-01T06:25:26;11.20;99.90
10312;DHT22;5201;48.776;9.128;2022-10-01T06:27:58;11.20;99.90
10312;DHT22;5201;48.776;9.128;2022-10-01T06:30:25;11.20;99.90
10312;DHT22;5201;48.776;9.128;2022-10-01T06:32:52;11.10;99.90
10312;DHT22;5201;48.776;9.128;2022-10-01T06:35:18;11.00;99.90
10312;DHT22;5201;48.776;9.128;2022-10-01T06:37:45;11.00;99.90
10312;DHT22;5201;48.776;9.128;2022-10-01T06:40:12;11.00;99.90
10312;DHT22;5201;48.776;9.128;2022-10-01T06:42:37;11.00;99.90
10312;DHT22;5201;48.776;9.128;2022-10-01T06:45:03;11.10;99.90
10312;DHT22;5201;48.776;9.128;2022-10-01T06:47:29;11.00;99.90
10312;DHT22;5201;48.776;9.128;2022-10-01T06:49:55;11.10;99.90
10312;DHT22;5201;48.776;9.128;2022-10-01T06:52:21;10.90;99.90
10312;DHT22;5201;48.776;9.128;2022-10-01T06:55:05;11.00;99.90
10312;DHT22;5201;48.776;9.128;2022-10-01T06:57:31;11.00;99.90
10312;DHT22;5201;48.776;9.128;2022-10-01T06:59:58;11.00;99.90
10312;DHT22;5201;48.776;9.128;2022-10-01T07:02:26;11.00;99.90
10312;DHT22;5201;48.776;9.128;2022-10-01T07:04:57;11.10;99.90
10312;DHT22;5201;48.776;9.128;2022-10-01T07:07:33;11.00;99.90
10312;DHT22;5201;48.776;9.128;2022-10-01T07:10:04;11.10;99.90
10312;DHT22;5201;48.776;9.128;2022-10-01T07:12:31;11.00;99.90
10312;DHT22;5201;48.776;9.128;2022-10-01T07:14:57;11.00;99.90
10312;DHT22;5201;48.776;9.128;2022-10-01T07:17:22;10.90;99.90
10312;DHT22;5201;48.776;9.128;2022-10-01T07:19:48;11.00;99.90
10312;DHT22;5201;48.776;9.128;2022-10-01T07:22:14;11.00;99.90
10312;DHT22;5201;48.776;9.128;2022-10-01T07:24:39;11.00;99.90
10312;DHT22;5201;48.776;9.128;2022-10-01T07:27:05;10.90;99.90
10312;DHT22;5201;48.776;9.128;2022-10-01T07:29:31;10.80;99.90
10312;DHT22;5201;48.776;9.128;2022-10-01T07:31:58;10.80;99.90
10312;DHT22;5201;48.776;9.128;2022-10-01T07:34:28;10.80;99.90
10312;DHT22;5201;48.776;9.128;2022-10-01T07:36:55;10.80;99.90
10312;DHT22;5201;48.776;9.128;2022-10-01T07:39:22;10.80;99.90
10312;DHT22;5201;48.776;9.128;2022-10-01T07:41:47;10.70;99.90
10312;DHT22;5201;48.776;9.128;2022-10-01T07:44:13;10.90;99.90
10312;DHT22;5201;48.776;9.128;2022-10-01T07:46:39;10.90;99.90
10312;DHT22;5201;48.776;9.128;2022-10-01T07:49:05;10.90;99.90
10312;DHT22;5201;48.776;9.128;2022-10-01T07:51:30;10.90;99.90
10312;DHT22;5201;48.776;9.128;2022-10-01T07:53:56;10.80;99.90
10312;DHT22;5201;48.776;9.128;2022-10-01T07:56:23;10.80;99.90
10312;DHT22;5201;48.776;9.128;2022-10-01T07:58:53;10.80;99.90
10312;DHT22;5201;48.776;9.128;2022-10-01T08:01:19;11.20;99.90
10312;DHT22;5201;48.776;9.128;2022-10-01T08:03:47;10.80;99.90
10312;DHT22;5201;48.776;9.128;2022-10-01T08:06:13;10.80;99.90
10312;DHT22;5201;48.776;9.128;2022-10-01T08:08:39;11.10;99.90
10312;DHT22;5201;48.776;9.128;2022-10-01T08:11:05;10.90;99.90
10312;DHT22;5201;48.776;9.128;2022-10-01T08:13:33;11.00;99.90
10312;DHT22;5201;48.776;9.128;2022-10-01T08:16:04;11.00;99.90
10312;DHT22;5201;48.776;9.128;2022-10-01T08:18:31;11.00;99.90
10312;DHT22;5201;48.776;9.128;2022-10-01T08:20:59;10.90;99.90
10312;DHT22;5201;48.776;9.128;2022-10-01T08:23:28;10.90;99.90
10312;DHT22;5201;48.776;9.128;2022-10-01T08:25:59;10.90;99.90
10312;DHT22;5201;48.776;9.128;2022-10-01T08:28:25;10.90;99.90
10312;DHT22;5201;48.776;9.128;2022-10-01T08:30:51;11.00;99.90
10312;DHT22;5201;48.776;9.128;2022-10-01T08:33:16;10.90;99.90
10312;DHT22;5201;48.776;9.128;2022-10-01T08:35:42;10.90;99.90
10312;DHT22;5201;48.776;9.128;2022-10-01T08:38:08;10.70;99.90
10312;DHT22;5201;48.776;9.128;2022-10-01T08:40:41;11.10;99.90
10312;DHT22;5201;48.776;9.128;2022-10-01T08:43:35;10.70;99.90
10312;DHT22;5201;48.776;9.128;2022-10-01T08:46:15;10.70;99.90
10312;DHT22;5201;48.776;9.128;2022-10-01T08:48:55;10.70;99.90
10312;DHT22;5201;48.776;9.128;2022-10-01T08:54:14;10.90;99.90
10312;DHT22;5201;48.776;9.128;2022-10-01T08:56:44;10.90;99.90
10312;DHT22;5201;48.776;9.128;2022-10-01T09:04:50;11.00;99.90
10312;DHT22;5201;48.776;9.128;2022-10-01T09:16:06;11.30;99.90
10312;DHT22;5201;48.776;9.128;2022-10-01T09:19:14;11.30;99.90
10312;DHT22;5201;48.776;9.128;2022-10-01T09:21:59;11.30;99.90
10312;DHT22;5201;48.776;9.128;2022-10-01T09:26:53;11.40;99.90
10312;DHT22;5201;48.776;9.128;2022-10-01T09:29:24;11.30;99.90
10312;DHT22;5201;48.776;9.128;2022-10-01T09:31:52;11.20;99.90
10312;DHT22;5201;48.776;9.128;2022-10-01T09:34:33;11.80;99.90
10312;DHT22;5201;48.776;9.128;2022-10-01T09:37:40;12.20;99.90
10312;DHT22;5201;48.776;9.128;2022-10-01T09:42:53;11.40;99.90
10312;DHT22;5201;48.776;9.128;2022-10-01T09:45:24;11.80;99.90
10312;DHT22;5201;48.776;9.128;2022-10-01T09:47:51;11.30;99.90
10312;DHT22;5201;48.776;9.128;2022-10-01T09:50:31;12.00;99.90
10312;DHT22;5201;48.776;9.128;2022-10-01T09:52:59;11.50;99.90
10312;DHT22;5201;48.776;9.128;2022-10-01T09:55:39;11.60;99.90
10312;DHT22;5201;48.776;9.128;2022-10-01T09:58:13;11.60;99.90
10312;DHT22;5201;48.776;9.128;2022-10-01T10:00:41;11.80;99.90
10312;DHT22;5201;48.776;9.128;2022-10-01T10:03:07;11.80;99.90
10312;DHT22;5201;48.776;9.128;2022-10-01T10:05:44;11.80;99.90
10312;DHT22;5201;48.776;9.128;2022-10-01T10:08:29;11.80;99.90
10312;DHT22;5201;48.776;9.128;2022-10-01T10:11:00;11.80;99.90
10312;DHT22;5201;48.776;9.128;2022-10-01T10:15:54;11.80;99.90
10312;DHT22;5201;48.776;9.128;2022-10-01T10:18:34;11.80;99.90
10312;DHT22;5201;48.776;9.128;2022-10-01T10:21:04;11.70;99.90
10312;DHT22;5201;48.776;9.128;2022-10-01T10:23:32;11.80;99.90
10312;DHT22;5201;48.776;9.128;2022-10-01T10:26:04;11.80;99.90
10312;DHT22;5201;48.776;9.128;2022-10-01T10:28:41;11.80;99.90
10312;DHT22;5201;48.776;9.128;2022-10-01T10:31:21;11.90;99.90
10312;DHT22;5201;48.776;9.128;2022-10-01T10:34:09;11.90;99.90
10312;DHT22;5201;48.776;9.128;2022-10-01T10:36:37;11.90;99.90
10312;DHT22;5201;48.776;9.128;2022-10-01T10:39:04;11.80;99.90
10312;DHT22;5201;48.776;9.128;2022-10-01T10:41:32;11.70;99.90
10312;DHT22;5201;48.776;9.128;2022-10-01T10:44:04;11.70;99.90
10312;DHT22;5201;48.776;9.128;2022-10-01T10:46:36;11.70;99.90
10312;DHT22;5201;48.776;9.128;2022-10-01T10:49:22;12.60;99.90
10312;DHT22;5201;48.776;9.128;2022-10-01T10:51:51;11.70;99.90
10312;DHT22;5201;48.776;9.128;2022-10-01T10:54:34;11.80;99.90
10312;DHT22;5201;48.776;9.128;2022-10-01T11:02:26;12.00;99.90
10312;DHT22;5201;48.776;9.128;2022-10-01T11:04:56;12.20;99.90
10312;DHT22;5201;48.776;9.128;2022-10-01T11:07:23;12.40;99.90
10312;DHT22;5201;48.776;9.128;2022-10-01T11:12:25;12.60;99.90
10312;DHT22;5201;48.776;9.128;2022-10-01T11:15:06;12.70;99.90
10312;DHT22;5201;48.776;9.128;2022-10-01T11:20:38;12.60;99.90
10312;DHT22;5201;48.776;9.128;2022-10-01T11:31:50;12.30;99.90
10312;DHT22;5201;48.776;9.128;2022-10-01T11:34:46;12.20;99.90
10312;DHT22;5201;48.776;9.128;2022-10-01T11:40:25;13.00;99.90
10312;DHT22;5201;48.776;9.128;2022-10-01T11:42:56;12.30;99.90
10312;DHT22;5201;48.776;9.128;2022-10-01T11:45:27;12.30;99.90
10312;DHT22;5201;48.776;9.128;2022-10-01T11:48:03;12.90;99.90
10312;DHT22;5201;48.776;9.128;2022-10-01T11:50:34;12.50;99.90
10312;DHT22;5201;48.776;9.128;2022-10-01T11:53:28;12.40;99.90
10312;DHT22;5201;48.776;9.128;2022-10-01T11:59:07;13.00;99.90
10312;DHT22;5201;48.776;9.128;2022-10-01T12:01:44;12.60;99.90
10312;DHT22;5201;48.776;9.128;2022-10-01T12:07:20;12.50;99.90
10312;DHT22;5201;48.776;9.128;2022-10-01T12:12:50;13.40;99.90
10312;DHT22;5201;48.776;9.128;2022-10-01T12:15:27;12.70;99.90
10312;DHT22;5201;48.776;9.128;2022-10-01T12:18:26;12.70;99.90
10312;DHT22;5201;48.776;9.128;2022-10-01T12:20:54;12.80;99.90
10312;DHT22;5201;48.776;9.128;2022-10-01T12:23:26;12.80;99.90
10312;DHT22;5201;48.776;9.128;2022-10-01T12:32:07;12.80;99.90
10312;DHT22;5201;48.776;9.128;2022-10-01T12:40:26;12.80;99.90
10312;DHT22;5201;48.776;9.128;2022-10-01T12:46:46;13.00;99.90
10312;DHT22;5201;48.776;9.128;2022-10-01T12:49:43;12.90;99.90
10312;DHT22;5201;48.776;9.128;2022-10-01T12:55:12;13.00;99.90
10312;DHT22;5201;48.776;9.128;2022-10-01T13:04:09;13.10;99.90
10312;DHT22;5201;48.776;9.128;2022-10-01T13:15:13;13.60;99.90
10312;DHT22;5201;48.776;9.128;2022-10-01T13:17:49;13.50;99.90
10312;DHT22;5201;48.776;9.128;2022-10-01T13:26:30;13.30;99.90
10312;DHT22;5201;48.776;9.128;2022-10-01T13:32:00;13.60;99.90
10312;DHT22;5201;48.776;9.128;2022-10-01T13:34:40;13.90;99.90
10312;DHT22;5201;48.776;9.128;2022-10-01T13:37:31;13.80;99.90
10312;DHT22;5201;48.776;9.128;2022-10-01T13:39:58;13.90;99.90
10312;DHT22;5201;48.776;9.128;2022-10-01T13:42:25;14.00;99.90
10312;DHT22;5201;48.776;9.128;2022-10-01T13:45:05;14.10;99.90
10312;DHT22;5201;48.776;9.128;2022-10-01T13:47:34;14.10;99.90
10312;DHT22;5201;48.776;9.128;2022-10-01T13:50:07;14.20;99.90
10312;DHT22;5201;48.776;9.128;2022-10-01T13:52:42;14.20;99.90
10312;DHT22;5201;48.776;9.128;2022-10-01T13:55:26;14.30;99.90
10312;DHT22;5201;48.776;9.128;2022-10-01T14:00:56;14.30;99.90
10312;DHT22;5201;48.776;9.128;2022-10-01T14:03:38;14.30;99.90
10312;DHT22;5201;48.776;9.128;2022-10-01T14:06:16;14.30;99.90
10312;DHT22;5201;48.776;9.128;2022-10-01T14:08:46;14.30;99.90
10312;DHT22;5201;48.776;9.128;2022-10-01T14:11:24;14.20;99.90
10312;DHT22;5201;48.776;9.128;2022-10-01T14:14:35;14.60;99.90
10312;DHT22;5201;48.776;9.128;2022-10-01T14:17:21;14.30;99.90
10312;DHT22;5201;48.776;9.128;2022-10-01T14:19:49;14.30;99.90
10312;DHT22;5201;48.776;9.128;2022-10-01T14:22:50;14.30;99.90
10312;DHT22;5201;48.776;9.128;2022-10-01T14:25:32;14.30;99.90
10312;DHT22;5201;48.776;9.128;2022-10-01T14:30:48;14.30;99.90
10312;DHT22;5201;48.776;9.128;2022-10-01T14:33:31;14.30;99.90
10312;DHT22;5201;48.776;9.128;2022-10-01T14:36:05;14.30;99.90
10312;DHT22;5201;48.776;9.128;2022-10-01T14:38:34;14.30;99.90
10312;DHT22;5201;48.776;9.128;2022-10-01T14:41:00;15.30;99.90
10312;DHT22;5201;48.776;9.128;2022-10-01T14:43:28;14.50;99.90
10312;DHT22;5201;48.776;9.128;2022-10-01T14:46:03;14.50;99.90
10312;DHT22;5201;48.776;9.128;2022-10-01T14:48:31;14.50;99.90
10312;DHT22;5201;48.776;9.128;2022-10-01T14:51:00;14.50;99.90
10312;DHT22;5201;48.776;9.128;2022-10-01T14:53:29;14.50;99.90
10312;DHT22;5201;48.776;9.128;2022-10-01T14:55:59;14.70;99.90
10312;DHT22;5201;48.776;9.128;2022-10-01T15:01:04;14.40;99.90
10312;DHT22;5201;48.776;9.128;2022-10-01T15:03:38;14.20;99.90
10312;DHT22;5201;48.776;9.128;2022-10-01T15:06:10;14.40;99.90
10312;DHT22;5201;48.776;9.128;2022-10-01T15:08:42;14.30;99.90
10312;DHT22;5201;48.776;9.128;2022-10-01T15:11:26;14.30;99.90
10312;DHT22;5201;48.776;9.128;2022-10-01T15:14:04;14.20;99.90
10312;DHT22;5201;48.776;9.128;2022-10-01T15:16:30;14.50;99.90
10312;DHT22;5201;48.776;9.128;2022-10-01T15:18:59;14.30;99.90
10312;DHT22;5201;48.776;9.128;2022-10-01T15:21:26;14.20;99.90
10312;DHT22;5201;48.776;9.128;2022-10-01T15:23:53;14.20;99.90
10312;DHT22;5201;48.776;9.128;2022-10-01T15:26:22;14.20;99.90
10312;DHT22;5201;48.776;9.128;2022-10-01T15:29:03;14.40;99.90
10312;DHT22;5201;48.776;9.128;2022-10-01T15:31:30;14.20;99.90
10312;DHT22;5201;48.776;9.128;2022-10-01T15:33:59;14.20;99.90
10312;DHT22;5201;48.776;9.128;2022-10-01T15:36:26;14.50;99.90
10312;DHT22;5201;48.776;9.128;2022-10-01T15:38:52;14.20;99.90
10312;DHT22;5201;48.776;9.128;2022-10-01T15:41:22;14.40;99.90
10312;DHT22;5201;48.776;9.128;2022-10-01T15:43:50;14.20;99.90
10312;DHT22;5201;48.776;9.128;2022-10-01T15:49:10;14.20;99.90
10312;DHT22;5201;48.776;9.128;2022-10-01T15:51:55;14.20;99.90
10312;DHT22;5201;48.776;9.128;2022-10-01T15:54:42;14.20;99.90
10312;DHT22;5201;48.776;9.128;2022-10-01T15:57:13;14.20;99.90
10312;DHT22;5201;48.776;9.128;2022-10-01T15:59:40;14.50;99.90
10312;DHT22;5201;48.776;9.128;2022-10-01T16:02:07;14.20;99.90
10312;DHT22;5201;48.776;9.128;2022-10-01T16:04:33;14.20;99.90
10312;DHT22;5201;48.776;9.128;2022-10-01T16:06:59;14.10;99.90
10312;DHT22;5201;48.776;9.128;2022-10-01T16:09:26;14.10;99.90
10312;DHT22;5201;48.776;9.128;2022-10-01T16:12:17;14.10;99.90
10312;DHT22;5201;48.776;9.128;2022-10-01T16:14:59;14.10;99.90
10312;DHT22;5201;48.776;9.128;2022-10-01T16:17:30;14.10;99.90
10312;DHT22;5201;48.776;9.128;2022-10-01T16:20:30;14.20;99.90
10312;DHT22;5201;48.776;9.128;2022-10-01T16:22:47;14.30;99.90
10312;DHT22;5201;48.776;9.128;2022-10-01T16:28:02;14.10;99.90
10312;DHT22;5201;48.776;9.128;2022-10-01T16:30:30;14.00;99.90
10312;DHT22;5201;48.776;9.128;2022-10-01T16:32:59;14.40;99.90
10312;DHT22;5201;48.776;9.128;2022-10-01T16:35:28;14.50;99.90
10312;DHT22;5201;48.776;9.128;2022-10-01T16:37:55;14.40;99.90
10312;DHT22;5201;48.776;9.128;2022-10-01T16:40:24;14.20;99.90
10312;DHT22;5201;48.776;9.128;2022-10-01T16:42:51;14.10;99.90
10312;DHT22;5201;48.776;9.128;2022-10-01T16:45:20;14.10;99.90
10312;DHT22;5201;48.776;9.128;2022-10-01T16:47:50;14.40;99.90
10312;DHT22;5201;48.776;9.128;2022-10-01T16:50:19;14.10;99.90
10312;DHT22;5201;48.776;9.128;2022-10-01T16:52:45;14.00;99.90
10312;DHT22;5201;48.776;9.128;2022-10-01T16:57:48;14.30;99.90
10312;DHT22;5201;48.776;9.128;2022-10-01T17:00:15;15.20;99.90
10312;DHT22;5201;48.776;9.128;2022-10-01T17:02:41;14.00;99.90
10312;DHT22;5201;48.776;9.128;2022-10-01T17:05:34;14.10;99.90
10312;DHT22;5201;48.776;9.128;2022-10-01T17:08:00;14.10;99.90
10312;DHT22;5201;48.776;9.128;2022-10-01T17:10:29;14.00;99.90
10312;DHT22;5201;48.776;9.128;2022-10-01T17:12:56;14.10;99.90
10312;DHT22;5201;48.776;9.128;2022-10-01T17:15:25;14.20;99.90
10312;DHT22;5201;48.776;9.128;2022-10-01T17:17:53;14.10;99.90
10312;DHT22;5201;48.776;9.128;2022-10-01T17:20:19;14.20;99.90
10312;DHT22;5201;48.776;9.128;2022-10-01T17:22:46;14.20;99.90
10312;DHT22;5201;48.776;9.128;2022-10-01T17:25:19;14.10;99.90
10312;DHT22;5201;48.776;9.128;2022-10-01T17:27:45;14.10;99.90
10312;DHT22;5201;48.776;9.128;2022-10-01T17:30:11;14.40;99.90
10312;DHT22;5201;48.776;9.128;2022-10-01T17:32:37;14.50;99.90
10312;DHT22;5201;48.776;9.128;2022-10-01T17:35:09;14.10;99.90
10312;DHT22;5201;48.776;9.128;2022-10-01T17:37:35;15.10;99.90
10312;DHT22;5201;48.776;9.128;2022-10-01T17:40:02;14.30;99.90
10312;DHT22;5201;48.776;9.128;2022-10-01T17:42:27;14.30;99.90
10312;DHT22;5201;48.776;9.128;2022-10-01T17:44:53;14.30;99.90
10312;DHT22;5201;48.776;9.128;2022-10-01T17:47:19;14.30;99.90
10312;DHT22;5201;48.776;9.128;2022-10-01T17:49:44;14.20;99.90
10312;DHT22;5201;48.776;9.128;2022-10-01T17:52:10;14.60;99.90
10312;DHT22;5201;48.776;9.128;2022-10-01T17:54:36;14.10;99.90
10312;DHT22;5201;48.776;9.128;2022-10-01T17:57:02;14.00;99.90
10312;DHT22;5201;48.776;9.128;2022-10-01T17:59:28;14.00;99.90
10312;DHT22;5201;48.776;9.128;2022-10-01T18:01:57;14.10;99.90
10312;DHT22;5201;48.776;9.128;2022-10-01T18:04:23;14.10;99.90
10312;DHT22;5201;48.776;9.128;2022-10-01T18:06:51;14.10;99.90
10312;DHT22;5201;48.776;9.128;2022-10-01T18:09:19;14.50;99.90